< < Back
Terminal Aerodrome Forecast


Current Version              Previous Versions:   1  2  3  4  5  6  7  8  9  

Terminal Aerodrome Forecast

070
FTUS42 KTAE 241720
TAFABY
TAF
KABY 241720Z 2418/2518 VRB04KT P6SM SCT050=



Latest METAR

882
SAUS70 KWBC 250000 RRF
MTRABY
METAR KABY 242353Z AUTO 00000KT 10SM CLR 28/20 A3001 RMK AO2 SLP160
T02780200 10344 20278 53006


USA.gov is the U.S. government's official web portal to all federal, state and local government web resources and services.